Aviation Digital Data Service (ADDS)

Output produced by METARs form (0453 UTC 16 September 2014)
found at http://www.aviationweather.gov/adds/metars/
 
KILG 160351Z 00000KT 10SM CLR 16/12 A3009 RMK AO2 SLP189 T01610122
KILG 152329Z 1600/1624 18003KT P6SM BKN200 
     FM160800 18003KT P6SM BKN120 
     TEMPO 1608/1611 -SHRA 
     FM161100 27005KT P6SM BKN050 
     TEMPO 1611/1612 -SHRA 
     FM161400 33008KT P6SM SCT050